createdAt,value
2023-03-24T00:00:13.686Z,2.45
2023-03-24T00:02:42.197Z,2.20
2023-03-24T00:05:10.819Z,2.60
2023-03-24T00:07:39.935Z,2.63
2023-03-24T00:10:12.321Z,2.25
2023-03-24T00:12:40.175Z,2.50
2023-03-24T00:15:08.948Z,2.80
2023-03-24T00:17:36.663Z,2.03
2023-03-24T00:20:13.736Z,2.22
2023-03-24T00:22:49.719Z,2.67
2023-03-24T00:25:23.711Z,2.40
2023-03-24T00:27:53.214Z,2.65
2023-03-24T00:30:20.933Z,1.98
2023-03-24T00:32:48.528Z,2.75
2023-03-24T00:35:17.693Z,2.42
2023-03-24T00:37:46.270Z,2.45
2023-03-24T00:40:16.479Z,2.58
2023-03-24T00:42:45.770Z,2.30
2023-03-24T00:45:16.032Z,2.65
2023-03-24T00:47:44.877Z,2.47
2023-03-24T00:50:14.130Z,2.60
2023-03-24T00:52:44.222Z,2.65
2023-03-24T00:55:16.087Z,2.60
2023-03-24T01:00:25.012Z,2.50
2023-03-24T01:02:55.417Z,2.63
2023-03-24T01:05:24.240Z,2.60
2023-03-24T01:07:52.270Z,2.60
2023-03-24T01:10:26.045Z,2.70
2023-03-24T01:12:55.863Z,2.50
2023-03-24T01:15:26.353Z,2.88
2023-03-24T01:17:54.320Z,2.50
2023-03-24T01:20:23.050Z,2.78
2023-03-24T01:22:51.821Z,2.40
2023-03-24T01:25:24.029Z,2.60
2023-03-24T01:27:52.328Z,2.63
2023-03-24T01:30:22.032Z,2.60
2023-03-24T01:32:50.343Z,2.50
2023-03-24T01:35:18.308Z,2.63
2023-03-24T01:37:46.779Z,2.60
2023-03-24T01:40:18.863Z,2.55
2023-03-24T01:42:46.552Z,2.58
2023-03-24T01:45:33.198Z,2.80
2023-03-24T01:48:01.165Z,2.58
2023-03-24T01:50:29.871Z,2.30
2023-03-24T01:52:57.594Z,2.72
2023-03-24T01:55:25.440Z,2.75
2023-03-24T01:57:57.173Z,2.50
2023-03-24T02:00:29.879Z,2.67
2023-03-24T02:03:19.206Z,2.55
2023-03-24T02:05:54.149Z,2.50
2023-03-24T02:08:29.297Z,2.55
2023-03-24T02:10:57.738Z,2.45
2023-03-24T02:13:30.615Z,2.20
2023-03-24T02:15:58.182Z,2.85
2023-03-24T02:18:27.555Z,2.60
2023-03-24T02:20:55.276Z,2.90
2023-03-24T02:23:54.038Z,2.25
2023-03-24T02:26:22.010Z,2.50
2023-03-24T02:29:07.607Z,2.72
2023-03-24T02:31:35.693Z,2.90
2023-03-24T02:34:19.321Z,2.75
2023-03-24T02:37:05.877Z,2.90
2023-03-24T02:39:33.515Z,2.53
2023-03-24T02:42:01.932Z,2.72
2023-03-24T02:44:29.532Z,2.40
2023-03-24T02:47:01.937Z,2.88
2023-03-24T02:49:38.677Z,2.28
2023-03-24T02:52:14.620Z,2.60
2023-03-24T02:54:58.652Z,2.55
2023-03-24T02:57:49.809Z,2.28
2023-03-24T03:00:47.714Z,2.42
2023-03-24T03:03:52.847Z,2.80
2023-03-24T03:06:28.984Z,2.58
2023-03-24T03:08:58.540Z,2.40
2023-03-24T03:11:26.151Z,2.65
2023-03-24T03:13:57.128Z,2.47
2023-03-24T03:16:34.443Z,2.95
2023-03-24T03:19:04.336Z,2.60
2023-03-24T03:21:36.072Z,2.30
2023-03-24T03:24:11.021Z,2.75
2023-03-24T03:26:38.875Z,3.03
2023-03-24T03:29:13.055Z,2.95
2023-03-24T03:31:49.545Z,2.63
2023-03-24T03:34:23.270Z,2.80
2023-03-24T03:36:55.428Z,2.50
2023-03-24T03:39:30.940Z,2.95
2023-03-24T03:42:01.250Z,2.88
2023-03-24T03:44:28.871Z,2.53
2023-03-24T03:46:56.647Z,2.55
2023-03-24T03:49:34.240Z,2.83
2023-03-24T03:52:03.126Z,2.70
2023-03-24T03:54:32.731Z,2.80
2023-03-24T03:57:01.065Z,2.55
2023-03-24T03:59:34.504Z,2.80
2023-03-24T04:02:18.045Z,2.47
2023-03-24T04:05:05.609Z,3.00
2023-03-24T04:07:53.764Z,2.78
2023-03-24T04:11:01.600Z,2.78
2023-03-24T04:13:32.753Z,3.10
2023-03-24T04:16:14.501Z,2.65
2023-03-24T04:19:04.965Z,2.58
2023-03-24T04:21:39.035Z,2.80
2023-03-24T04:24:10.347Z,3.10
2023-03-24T04:26:45.342Z,3.10
2023-03-24T04:29:19.800Z,3.17
2023-03-24T04:31:54.476Z,3.17
2023-03-24T04:34:39.349Z,3.22
2023-03-24T04:37:38.860Z,3.28
2023-03-24T04:40:17.929Z,3.20
2023-03-24T04:42:47.744Z,3.33
2023-03-24T04:45:17.036Z,3.58
2023-03-24T04:50:38.959Z,3.22
2023-03-24T04:53:11.778Z,3.50
2023-03-24T04:56:02.205Z,3.65
2023-03-24T04:58:49.715Z,3.63
2023-03-24T05:01:21.133Z,3.30
2023-03-24T05:04:04.922Z,3.60
2023-03-24T05:06:33.087Z,3.70
2023-03-24T05:09:01.025Z,3.20
2023-03-24T05:11:30.944Z,3.45
2023-03-24T05:14:04.806Z,3.30
2023-03-24T05:16:32.504Z,3.40
2023-03-24T05:19:01.790Z,3.58
2023-03-24T05:21:33.687Z,3.17
2023-03-24T05:24:01.674Z,3.67
2023-03-24T05:26:31.294Z,3.30
2023-03-24T05:29:14.815Z,3.22
2023-03-24T05:31:42.601Z,3.28
2023-03-24T05:34:11.902Z,3.40
2023-03-24T05:37:11.981Z,3.40
2023-03-24T05:39:39.922Z,3.05
2023-03-24T05:42:12.145Z,2.95
2023-03-24T05:44:39.842Z,2.90
2023-03-24T05:47:15.841Z,2.72
2023-03-24T05:49:43.957Z,2.73
2023-03-24T05:52:12.962Z,3.00
2023-03-24T05:54:45.856Z,2.72
2023-03-24T05:57:18.163Z,2.53
2023-03-24T06:00:16.196Z,3.92
2023-03-24T06:02:56.445Z,2.92
2023-03-24T06:05:36.551Z,2.80
2023-03-24T06:08:04.244Z,3.00
2023-03-24T06:10:36.793Z,3.20
2023-03-24T06:13:04.915Z,3.25
2023-03-24T06:15:34.310Z,6.40
2023-03-24T06:18:18.400Z,3.13
2023-03-24T06:20:46.367Z,3.13
2023-03-24T06:23:23.832Z,3.10
2023-03-24T06:26:12.410Z,3.60
2023-03-24T06:28:51.990Z,3.10
2023-03-24T06:31:21.604Z,3.47
2023-03-24T06:33:52.290Z,3.35
2023-03-24T06:36:20.676Z,3.50
2023-03-24T06:38:50.388Z,3.40
2023-03-24T06:41:21.847Z,3.70
2023-03-24T06:43:54.355Z,3.45
2023-03-24T06:46:22.163Z,3.10
2023-03-24T06:48:49.955Z,3.60
2023-03-24T06:51:18.114Z,3.67
2023-03-24T06:53:46.786Z,4.20
2023-03-24T06:56:17.140Z,4.13
2023-03-24T06:58:49.441Z,4.65
2023-03-24T07:01:25.625Z,4.85
2023-03-24T07:03:56.932Z,4.45
2023-03-24T07:06:46.659Z,4.65
2023-03-24T07:09:24.654Z,5.20
2023-03-24T07:11:52.374Z,5.47
2023-03-24T07:14:21.940Z,4.88
2023-03-24T07:16:50.651Z,4.90
2023-03-24T07:19:41.347Z,4.72
2023-03-24T07:22:40.994Z,5.10
2023-03-24T07:25:34.603Z,4.55
2023-03-24T07:28:15.418Z,4.88
2023-03-24T07:30:43.094Z,4.80
2023-03-24T07:33:12.472Z,5.10
2023-03-24T07:35:42.635Z,5.30
2023-03-24T07:38:10.920Z,5.07
2023-03-24T07:40:40.016Z,5.30
2023-03-24T07:43:09.928Z,5.07
2023-03-24T07:46:03.428Z,4.78
2023-03-24T07:48:31.335Z,4.57
2023-03-24T07:50:59.029Z,4.22
2023-03-24T07:53:56.089Z,4.45
2023-03-24T07:56:30.890Z,4.43
2023-03-24T07:59:01.253Z,3.97
2023-03-24T08:01:36.785Z,4.30
2023-03-24T08:04:07.738Z,4.13
2023-03-24T08:07:01.930Z,3.10
2023-03-24T08:09:30.019Z,3.85
2023-03-24T08:11:58.995Z,3.50
2023-03-24T08:14:30.292Z,3.67
2023-03-24T08:16:57.880Z,3.75
2023-03-24T08:19:25.896Z,3.42
2023-03-24T08:21:53.956Z,3.00
2023-03-24T08:24:21.636Z,3.42
2023-03-24T08:26:49.366Z,3.15
2023-03-24T08:29:17.072Z,3.17
2023-03-24T08:31:44.599Z,3.28
2023-03-24T08:34:12.366Z,3.15
2023-03-24T08:36:41.259Z,3.10
2023-03-24T08:39:09.621Z,3.67
2023-03-24T08:41:37.270Z,3.30
2023-03-24T08:44:07.249Z,3.10
2023-03-24T08:46:35.391Z,3.45
2023-03-24T08:49:03.660Z,3.38
2023-03-24T08:51:31.537Z,3.28
2023-03-24T08:53:59.413Z,3.20
2023-03-24T08:56:27.070Z,3.17
2023-03-24T08:58:54.729Z,3.60
2023-03-24T09:01:22.845Z,3.35
2023-03-24T09:03:50.765Z,3.10
2023-03-24T09:06:18.317Z,3.08
2023-03-24T09:08:45.994Z,3.20
2023-03-24T09:11:18.273Z,3.30
2023-03-24T09:13:46.149Z,3.30
2023-03-24T09:16:13.920Z,3.15
2023-03-24T09:18:42.210Z,3.50
2023-03-24T09:21:10.492Z,3.50
2023-03-24T09:23:38.113Z,2.75
2023-03-24T09:26:07.324Z,3.00
2023-03-24T09:28:35.327Z,3.00
2023-03-24T09:31:04.392Z,2.72
2023-03-24T09:33:34.126Z,2.35
2023-03-24T09:36:02.478Z,2.33
2023-03-24T09:38:30.853Z,2.78
2023-03-24T09:41:03.032Z,2.88
2023-03-24T09:43:37.541Z,2.30
2023-03-24T09:46:06.920Z,2.30
2023-03-24T09:48:41.866Z,2.53
2023-03-24T09:51:09.362Z,2.50
2023-03-24T09:53:39.783Z,2.30
2023-03-24T09:56:15.371Z,2.35
2023-03-24T09:58:44.121Z,2.47
2023-03-24T10:01:15.681Z,2.65
2023-03-24T10:03:44.162Z,2.47
2023-03-24T10:06:17.885Z,3.05
2023-03-24T10:08:50.335Z,2.70
2023-03-24T10:11:30.917Z,2.92
2023-03-24T10:14:04.597Z,3.28
2023-03-24T10:16:39.793Z,3.28
2023-03-24T10:19:19.386Z,3.00
2023-03-24T10:21:56.571Z,2.85
2023-03-24T10:24:44.539Z,3.40
2023-03-24T10:27:31.285Z,3.10
2023-03-24T10:30:03.831Z,3.17
2023-03-24T10:32:34.842Z,3.03
2023-03-24T10:35:09.485Z,2.87
2023-03-24T10:37:38.132Z,2.95
2023-03-24T10:40:13.769Z,3.17
2023-03-24T10:42:41.360Z,2.67
2023-03-24T10:45:13.920Z,2.97
2023-03-24T10:47:42.342Z,2.88
2023-03-24T10:50:14.827Z,3.13
2023-03-24T10:52:46.426Z,2.80
2023-03-24T10:55:18.948Z,2.83
2023-03-24T10:57:50.867Z,2.30
2023-03-24T11:02:54.914Z,2.33
2023-03-24T11:05:23.464Z,2.10
2023-03-24T11:07:53.596Z,2.08
2023-03-24T11:10:27.773Z,1.85
2023-03-24T11:12:55.538Z,2.00
2023-03-24T11:15:24.174Z,2.10
2023-03-24T11:17:56.840Z,2.15
2023-03-24T11:20:27.499Z,2.03
2023-03-24T11:23:04.310Z,2.20
2023-03-24T11:25:36.960Z,2.25
2023-03-24T11:28:11.607Z,2.55
2023-03-24T11:30:50.905Z,2.47
2023-03-24T11:33:36.164Z,2.30
2023-03-24T11:36:28.077Z,2.40
2023-03-24T11:39:04.700Z,2.40
2023-03-24T11:41:32.452Z,2.53
2023-03-24T11:44:17.209Z,2.35
2023-03-24T11:46:46.086Z,2.35
2023-03-24T11:49:17.084Z,2.63
2023-03-24T11:51:47.218Z,2.23
2023-03-24T11:54:16.546Z,2.20
2023-03-24T11:56:46.486Z,2.42
2023-03-24T11:59:34.474Z,2.13
2023-03-24T12:02:20.621Z,2.08
2023-03-24T12:04:51.061Z,1.95
2023-03-24T12:07:25.089Z,1.90
2023-03-24T12:09:57.496Z,1.55
2023-03-24T12:12:33.516Z,1.40
2023-03-24T12:15:26.625Z,1.80
2023-03-24T12:18:14.500Z,1.40
2023-03-24T12:20:51.245Z,1.33
2023-03-24T12:23:23.669Z,1.48
2023-03-24T12:26:00.448Z,1.40
2023-03-24T12:28:43.103Z,1.55
2023-03-24T12:31:11.286Z,1.30
2023-03-24T12:33:53.894Z,1.40
2023-03-24T12:36:31.686Z,1.42
2023-03-24T12:39:10.156Z,1.63
2023-03-24T12:41:56.205Z,1.60
2023-03-24T12:44:23.757Z,1.20
2023-03-24T12:47:01.679Z,1.40
2023-03-24T12:49:55.760Z,1.27
2023-03-24T12:52:42.547Z,1.23
2023-03-24T12:55:33.437Z,1.08
2023-03-24T12:58:19.951Z,1.00
2023-03-24T13:01:08.536Z,1.10
2023-03-24T13:03:48.540Z,1.08
2023-03-24T13:06:17.492Z,1.00
2023-03-24T13:08:49.577Z,1.20
2023-03-24T13:11:32.365Z,1.77
2023-03-24T13:14:03.655Z,1.75
2023-03-24T13:16:33.079Z,1.60
2023-03-24T13:19:02.626Z,0.88
2023-03-24T13:21:34.951Z,0.50
2023-03-24T13:24:13.524Z,1.05
2023-03-24T13:26:54.207Z,1.20
2023-03-24T13:29:41.952Z,1.05
2023-03-24T13:32:28.630Z,1.05
2023-03-24T13:35:15.007Z,1.13
2023-03-24T13:37:46.396Z,1.20
2023-03-24T13:40:24.992Z,1.20
2023-03-24T13:42:57.480Z,1.00
2023-03-24T13:45:33.024Z,1.10
2023-03-24T13:48:17.170Z,1.00
2023-03-24T13:50:53.298Z,0.93
2023-03-24T13:53:28.084Z,0.80
2023-03-24T13:55:56.190Z,0.90
2023-03-24T13:58:26.050Z,1.20
2023-03-24T14:01:14.413Z,1.00
2023-03-24T14:03:43.625Z,1.20
2023-03-24T14:06:12.006Z,0.73
2023-03-24T14:08:44.446Z,1.00
2023-03-24T14:11:30.968Z,0.90
2023-03-24T14:14:13.948Z,0.73
2023-03-24T14:16:49.693Z,1.00
2023-03-24T14:19:20.444Z,1.00
2023-03-24T14:21:58.710Z,1.05
2023-03-24T14:24:30.763Z,0.70
2023-03-24T14:26:58.547Z,0.88
2023-03-24T14:29:40.194Z,0.70
2023-03-24T14:32:19.213Z,0.80
2023-03-24T14:35:11.805Z,0.77
2023-03-24T14:37:48.429Z,0.85
2023-03-24T14:40:29.461Z,1.10
2023-03-24T14:43:02.858Z,0.88
2023-03-24T14:45:33.200Z,0.82
2023-03-24T14:48:02.202Z,2.10
2023-03-24T14:50:31.394Z,1.15
2023-03-24T14:53:00.185Z,0.77
2023-03-24T14:55:28.042Z,0.98
2023-03-24T14:57:58.325Z,1.38
2023-03-24T15:00:36.136Z,0.90
2023-03-24T15:03:11.633Z,1.00
2023-03-24T15:05:39.377Z,1.13
2023-03-24T15:08:12.967Z,1.00
2023-03-24T15:10:51.687Z,1.10
2023-03-24T15:13:39.697Z,1.10
2023-03-24T15:16:27.824Z,1.00
2023-03-24T15:19:02.424Z,1.00
2023-03-24T15:21:33.748Z,0.90
2023-03-24T15:24:01.695Z,0.90
2023-03-24T15:26:30.917Z,0.90
2023-03-24T15:29:08.400Z,1.10
2023-03-24T15:31:37.382Z,1.05
2023-03-24T15:34:25.092Z,1.23
2023-03-24T15:36:58.859Z,0.90
2023-03-24T15:39:28.031Z,1.50
2023-03-24T15:41:55.651Z,0.73
2023-03-24T15:44:26.143Z,0.90
2023-03-24T15:46:55.657Z,0.80
2023-03-24T15:49:25.531Z,0.80
2023-03-24T15:52:03.902Z,1.00
2023-03-24T15:54:40.005Z,0.93
2023-03-24T15:57:13.678Z,0.80
2023-03-24T15:59:59.300Z,0.77
2023-03-24T16:02:52.023Z,1.33
2023-03-24T16:05:22.711Z,0.93
2023-03-24T16:07:56.179Z,0.80
2023-03-24T16:10:32.281Z,3.00
2023-03-24T16:13:20.432Z,1.20
2023-03-24T16:15:49.303Z,0.95
2023-03-24T16:18:27.497Z,1.08
2023-03-24T16:20:55.450Z,1.00
2023-03-24T16:23:24.484Z,1.13
2023-03-24T16:25:53.533Z,1.38
2023-03-24T16:28:24.708Z,2.58
2023-03-24T16:31:03.196Z,3.72
2023-03-24T16:33:30.848Z,1.20
2023-03-24T16:35:58.576Z,3.70
2023-03-24T16:38:26.630Z,1.80
2023-03-24T16:40:55.214Z,2.15
2023-03-24T16:43:22.895Z,1.40
2023-03-24T16:45:51.127Z,1.75
2023-03-24T16:48:18.960Z,1.27
2023-03-24T16:50:50.228Z,1.40
2023-03-24T16:53:21.346Z,2.00
2023-03-24T16:55:48.995Z,1.77
2023-03-24T16:58:17.550Z,1.35
2023-03-24T17:00:45.591Z,1.35
2023-03-24T17:03:17.900Z,1.30
2023-03-24T17:05:48.551Z,1.20
2023-03-24T17:08:16.566Z,1.40
2023-03-24T17:10:44.586Z,1.20
2023-03-24T17:13:19.905Z,1.17
2023-03-24T17:15:47.909Z,1.30
2023-03-24T17:18:15.976Z,1.10
2023-03-24T17:20:43.613Z,1.10
2023-03-24T17:23:12.402Z,1.58
2023-03-24T17:25:40.242Z,1.00
2023-03-24T17:28:13.252Z,0.77
2023-03-24T17:30:40.981Z,0.77
2023-03-24T17:33:12.309Z,0.77
2023-03-24T17:35:40.015Z,0.88
2023-03-24T17:38:08.711Z,0.90
2023-03-24T17:40:36.271Z,1.10
2023-03-24T17:43:05.488Z,1.00
2023-03-24T17:45:33.060Z,0.68
2023-03-24T17:48:00.732Z,0.80
2023-03-24T17:50:30.661Z,0.88
2023-03-24T17:53:00.500Z,0.80
2023-03-24T17:55:28.179Z,0.88
2023-03-24T17:57:55.861Z,0.85
2023-03-24T18:00:23.725Z,0.90
2023-03-24T18:02:52.562Z,0.60
2023-03-24T18:05:20.317Z,0.90
2023-03-24T18:07:48.094Z,0.80
2023-03-24T18:10:15.764Z,0.90
2023-03-24T18:12:43.572Z,0.80
2023-03-24T18:15:11.437Z,0.70
2023-03-24T18:17:39.115Z,0.60
2023-03-24T18:20:09.943Z,0.70
2023-03-24T18:22:40.752Z,0.70
2023-03-24T18:25:09.695Z,0.90
2023-03-24T18:27:37.672Z,0.68
2023-03-24T18:30:06.743Z,0.80
2023-03-24T18:32:35.801Z,0.73
2023-03-24T18:35:04.948Z,0.73
2023-03-24T18:37:32.729Z,0.77
2023-03-24T18:40:00.492Z,1.10
2023-03-24T18:42:28.233Z,1.10
2023-03-24T18:44:56.133Z,0.77
2023-03-24T18:47:24.547Z,0.85
2023-03-24T18:49:52.264Z,0.68
2023-03-24T18:52:19.870Z,0.80
2023-03-24T18:54:49.049Z,0.90
2023-03-24T18:57:17.009Z,1.00
2023-03-24T18:59:44.553Z,0.80
2023-03-24T19:02:12.546Z,0.90
2023-03-24T19:04:40.198Z,0.70
2023-03-24T19:07:14.392Z,0.63
2023-03-24T19:09:42.893Z,0.90
2023-03-24T19:12:10.521Z,0.80
2023-03-24T19:14:38.314Z,1.00
2023-03-24T19:17:06.809Z,0.88
2023-03-24T19:19:34.541Z,0.80
2023-03-24T19:22:02.796Z,0.63
2023-03-24T19:24:30.443Z,0.75
2023-03-24T19:26:57.963Z,0.93
2023-03-24T19:29:25.575Z,0.60
2023-03-24T19:31:53.122Z,0.88
2023-03-24T19:34:20.789Z,0.90
2023-03-24T19:36:49.582Z,1.30
2023-03-24T19:39:17.336Z,0.98
2023-03-24T19:41:45.110Z,0.75
2023-03-24T19:44:12.812Z,0.85
2023-03-24T19:46:40.522Z,0.80
2023-03-24T19:49:08.321Z,0.80
2023-03-24T19:51:36.070Z,0.85
2023-03-24T19:54:03.639Z,1.00
2023-03-24T19:56:31.179Z,0.80
2023-03-24T19:58:58.703Z,0.70
2023-03-24T20:01:26.321Z,0.77
2023-03-24T20:03:53.936Z,0.60
2023-03-24T20:06:21.859Z,0.95
2023-03-24T20:08:49.452Z,0.80
2023-03-24T20:11:16.970Z,0.77
2023-03-24T20:13:44.612Z,1.02
2023-03-24T20:16:12.318Z,0.93
2023-03-24T20:18:40.288Z,1.00
2023-03-24T20:21:09.136Z,0.88
2023-03-24T20:23:36.743Z,0.93
2023-03-24T20:26:04.439Z,0.65
2023-03-24T20:28:32.021Z,1.10
2023-03-24T20:31:00.944Z,0.90
2023-03-24T20:33:28.752Z,0.88
2023-03-24T20:35:57.212Z,0.88
2023-03-24T20:38:25.358Z,0.65
2023-03-24T20:40:59.505Z,0.73
2023-03-24T20:43:27.259Z,0.80
2023-03-24T20:45:56.093Z,0.70
2023-03-24T20:48:24.111Z,0.82
2023-03-24T20:50:52.620Z,0.60
2023-03-24T20:53:20.537Z,0.75
2023-03-24T20:55:57.984Z,0.60
2023-03-24T20:58:27.273Z,0.80
2023-03-24T21:00:55.426Z,0.80
2023-03-24T21:03:23.201Z,0.82
2023-03-24T21:05:51.482Z,0.80
2023-03-24T21:08:19.163Z,0.80
2023-03-24T21:10:46.842Z,0.90
2023-03-24T21:13:16.742Z,0.90
2023-03-24T21:15:45.288Z,0.90
2023-03-24T21:18:12.875Z,0.90
2023-03-24T21:20:42.223Z,0.80
2023-03-24T21:23:09.758Z,1.00
2023-03-24T21:25:37.626Z,1.00
2023-03-24T21:28:05.282Z,0.77
2023-03-24T21:30:33.107Z,0.85
2023-03-24T21:33:01.316Z,0.98
2023-03-24T21:35:29.032Z,0.77
2023-03-24T21:37:56.671Z,0.80
2023-03-24T21:40:25.819Z,1.15
2023-03-24T21:42:53.782Z,0.90
2023-03-24T21:45:23.084Z,1.10
2023-03-24T21:47:51.108Z,1.30
2023-03-24T21:50:22.675Z,0.90
2023-03-24T21:52:51.211Z,1.00
2023-03-24T21:55:20.357Z,0.90
2023-03-24T21:57:48.754Z,1.00
2023-03-24T22:00:17.926Z,0.90
2023-03-24T22:02:47.324Z,0.90
2023-03-24T22:05:15.821Z,1.08
2023-03-24T22:07:44.578Z,0.80
2023-03-24T22:10:14.336Z,1.02
2023-03-24T22:12:43.094Z,0.90
2023-03-24T22:15:11.847Z,1.20
2023-03-24T22:17:39.471Z,0.90
2023-03-24T22:20:09.076Z,1.10
2023-03-24T22:22:37.294Z,1.02
2023-03-24T22:25:06.662Z,0.98
2023-03-24T22:27:34.327Z,0.90
2023-03-24T22:30:01.869Z,1.00
2023-03-24T22:32:29.603Z,1.20
2023-03-24T22:34:57.202Z,0.88
2023-03-24T22:37:24.778Z,1.20
2023-03-24T22:39:52.329Z,1.00
2023-03-24T22:42:19.963Z,0.90
2023-03-24T22:44:47.595Z,0.90
2023-03-24T22:47:15.220Z,1.02
2023-03-24T22:49:42.730Z,0.85
2023-03-24T22:52:10.436Z,1.10
2023-03-24T22:54:38.106Z,1.00
2023-03-24T22:57:05.776Z,1.02
2023-03-24T22:59:35.460Z,1.10
2023-03-24T23:02:09.868Z,1.00
2023-03-24T23:04:40.293Z,0.85
2023-03-24T23:07:08.004Z,1.00
2023-03-24T23:09:36.468Z,0.88
2023-03-24T23:12:04.114Z,1.00
2023-03-24T23:14:31.755Z,0.80
2023-03-24T23:16:59.417Z,1.15
2023-03-24T23:19:28.040Z,1.00
2023-03-24T23:21:56.198Z,0.90
2023-03-24T23:24:23.809Z,0.63
2023-03-24T23:26:51.377Z,0.98
2023-03-24T23:29:18.903Z,0.93
2023-03-24T23:31:46.530Z,0.98
2023-03-24T23:34:14.418Z,1.13
2023-03-24T23:36:45.003Z,1.08
2023-03-24T23:39:12.691Z,1.08
2023-03-24T23:41:40.296Z,1.00
2023-03-24T23:44:07.848Z,0.73
2023-03-24T23:46:36.009Z,1.13
2023-03-24T23:49:03.544Z,0.85
2023-03-24T23:51:31.423Z,1.02
2023-03-24T23:53:59.360Z,1.00
2023-03-24T23:56:27.014Z,0.93
2023-03-24T23:58:54.689Z,0.80
